sensor_id;sensor_type;location;lat;lon;timestamp;P1;durP1;ratioP1;P2;durP2;ratioP2
17947;SDS011;9099;47.958;11.366;2022-09-09T00:02:02;1.25;;;1.15;;
17947;SDS011;9099;47.958;11.366;2022-09-09T00:04:40;1.05;;;0.95;;
17947;SDS011;9099;47.958;11.366;2022-09-09T00:07:10;1.30;;;1.20;;
17947;SDS011;9099;47.958;11.366;2022-09-09T00:09:44;1.40;;;1.30;;
17947;SDS011;9099;47.958;11.366;2022-09-09T00:12:15;1.63;;;1.48;;
17947;SDS011;9099;47.958;11.366;2022-09-09T00:14:48;1.83;;;1.50;;
17947;SDS011;9099;47.958;11.366;2022-09-09T00:17:23;1.50;;;1.40;;
17947;SDS011;9099;47.958;11.366;2022-09-09T00:19:59;2.05;;;1.40;;
17947;SDS011;9099;47.958;11.366;2022-09-09T00:22:32;1.50;;;1.20;;
17947;SDS011;9099;47.958;11.366;2022-09-09T00:25:02;1.40;;;1.30;;
17947;SDS011;9099;47.958;11.366;2022-09-09T00:27:39;1.58;;;1.48;;
17947;SDS011;9099;47.958;11.366;2022-09-09T00:30:13;1.20;;;1.10;;
17947;SDS011;9099;47.958;11.366;2022-09-09T00:32:44;1.58;;;1.10;;
17947;SDS011;9099;47.958;11.366;2022-09-09T00:35:14;1.08;;;1.08;;
17947;SDS011;9099;47.958;11.366;2022-09-09T00:37:44;1.05;;;0.95;;
17947;SDS011;9099;47.958;11.366;2022-09-09T00:40:16;1.35;;;1.00;;
17947;SDS011;9099;47.958;11.366;2022-09-09T00:42:54;1.65;;;1.20;;
17947;SDS011;9099;47.958;11.366;2022-09-09T00:45:51;1.00;;;0.90;;
17947;SDS011;9099;47.958;11.366;2022-09-09T00:48:30;1.25;;;1.10;;
17947;SDS011;9099;47.958;11.366;2022-09-09T00:51:03;1.77;;;1.30;;
17947;SDS011;9099;47.958;11.366;2022-09-09T00:53:51;0.93;;;0.93;;
17947;SDS011;9099;47.958;11.366;2022-09-09T00:56:29;1.95;;;0.88;;
17947;SDS011;9099;47.958;11.366;2022-09-09T00:59:05;0.82;;;0.82;;
17947;SDS011;9099;47.958;11.366;2022-09-09T01:01:43;1.00;;;0.80;;
17947;SDS011;9099;47.958;11.366;2022-09-09T01:04:10;1.05;;;0.98;;
17947;SDS011;9099;47.958;11.366;2022-09-09T01:06:42;0.90;;;0.90;;
17947;SDS011;9099;47.958;11.366;2022-09-09T01:09:17;0.88;;;0.88;;
17947;SDS011;9099;47.958;11.366;2022-09-09T01:11:53;0.98;;;0.98;;
17947;SDS011;9099;47.958;11.366;2022-09-09T01:14:32;1.85;;;0.75;;
17947;SDS011;9099;47.958;11.366;2022-09-09T01:17:08;2.85;;;1.00;;
17947;SDS011;9099;47.958;11.366;2022-09-09T01:19:45;0.90;;;0.90;;
17947;SDS011;9099;47.958;11.366;2022-09-09T01:22:21;1.52;;;0.82;;
17947;SDS011;9099;47.958;11.366;2022-09-09T01:25:07;0.88;;;0.82;;
17947;SDS011;9099;47.958;11.366;2022-09-09T01:27:46;1.02;;;1.02;;
17947;SDS011;9099;47.958;11.366;2022-09-09T01:30:15;2.53;;;1.10;;
17947;SDS011;9099;47.958;11.366;2022-09-09T01:32:45;0.93;;;0.80;;
17947;SDS011;9099;47.958;11.366;2022-09-09T01:35:15;1.23;;;1.17;;
17947;SDS011;9099;47.958;11.366;2022-09-09T01:37:55;1.17;;;0.90;;
17947;SDS011;9099;47.958;11.366;2022-09-09T01:40:22;0.90;;;0.90;;
17947;SDS011;9099;47.958;11.366;2022-09-09T01:42:51;1.15;;;1.00;;
17947;SDS011;9099;47.958;11.366;2022-09-09T01:45:19;0.98;;;0.90;;
17947;SDS011;9099;47.958;11.366;2022-09-09T01:47:47;0.80;;;0.80;;
17947;SDS011;9099;47.958;11.366;2022-09-09T01:50:15;1.05;;;0.80;;
17947;SDS011;9099;47.958;11.366;2022-09-09T01:52:43;1.42;;;0.70;;
17947;SDS011;9099;47.958;11.366;2022-09-09T01:55:12;1.42;;;0.70;;
17947;SDS011;9099;47.958;11.366;2022-09-09T01:57:41;0.93;;;0.75;;
17947;SDS011;9099;47.958;11.366;2022-09-09T02:00:17;1.25;;;0.98;;
17947;SDS011;9099;47.958;11.366;2022-09-09T02:02:46;1.08;;;0.85;;
17947;SDS011;9099;47.958;11.366;2022-09-09T02:05:24;1.42;;;1.00;;
17947;SDS011;9099;47.958;11.366;2022-09-09T02:08:00;0.88;;;0.88;;
17947;SDS011;9099;47.958;11.366;2022-09-09T02:10:33;1.20;;;1.10;;
17947;SDS011;9099;47.958;11.366;2022-09-09T02:13:07;0.70;;;0.70;;
17947;SDS011;9099;47.958;11.366;2022-09-09T02:15:40;1.23;;;1.00;;
17947;SDS011;9099;47.958;11.366;2022-09-09T02:18:11;1.25;;;0.82;;
17947;SDS011;9099;47.958;11.366;2022-09-09T02:20:43;1.00;;;0.80;;
17947;SDS011;9099;47.958;11.366;2022-09-09T02:23:12;1.65;;;1.00;;
17947;SDS011;9099;47.958;11.366;2022-09-09T02:25:41;1.75;;;0.85;;
17947;SDS011;9099;47.958;11.366;2022-09-09T02:28:09;2.17;;;0.80;;
17947;SDS011;9099;47.958;11.366;2022-09-09T02:30:39;1.60;;;0.80;;
17947;SDS011;9099;47.958;11.366;2022-09-09T02:33:09;2.45;;;1.05;;
17947;SDS011;9099;47.958;11.366;2022-09-09T02:35:38;2.50;;;0.80;;
17947;SDS011;9099;47.958;11.366;2022-09-09T02:38:07;1.88;;;0.80;;
17947;SDS011;9099;47.958;11.366;2022-09-09T02:40:36;1.67;;;0.88;;
17947;SDS011;9099;47.958;11.366;2022-09-09T02:43:03;1.88;;;1.00;;
17947;SDS011;9099;47.958;11.366;2022-09-09T02:45:31;0.93;;;0.90;;
17947;SDS011;9099;47.958;11.366;2022-09-09T02:48:05;1.00;;;0.93;;
17947;SDS011;9099;47.958;11.366;2022-09-09T02:50:40;1.25;;;1.00;;
17947;SDS011;9099;47.958;11.366;2022-09-09T02:53:19;2.25;;;0.98;;
17947;SDS011;9099;47.958;11.366;2022-09-09T02:55:50;1.63;;;1.00;;
17947;SDS011;9099;47.958;11.366;2022-09-09T02:58:21;1.85;;;1.00;;
17947;SDS011;9099;47.958;11.366;2022-09-09T03:00:49;0.90;;;0.70;;
17947;SDS011;9099;47.958;11.366;2022-09-09T03:03:19;0.70;;;0.70;;
17947;SDS011;9099;47.958;11.366;2022-09-09T03:05:47;1.17;;;0.70;;
17947;SDS011;9099;47.958;11.366;2022-09-09T03:08:14;0.70;;;0.70;;
17947;SDS011;9099;47.958;11.366;2022-09-09T03:10:42;0.80;;;0.80;;
17947;SDS011;9099;47.958;11.366;2022-09-09T03:13:09;1.33;;;0.85;;
17947;SDS011;9099;47.958;11.366;2022-09-09T03:15:37;0.52;;;0.52;;
17947;SDS011;9099;47.958;11.366;2022-09-09T03:18:04;0.70;;;0.70;;
17947;SDS011;9099;47.958;11.366;2022-09-09T03:20:32;0.70;;;0.70;;
17947;SDS011;9099;47.958;11.366;2022-09-09T03:22:59;0.80;;;0.80;;
17947;SDS011;9099;47.958;11.366;2022-09-09T03:25:27;0.77;;;0.77;;
17947;SDS011;9099;47.958;11.366;2022-09-09T03:27:55;0.93;;;0.70;;
17947;SDS011;9099;47.958;11.366;2022-09-09T03:30:22;0.95;;;0.77;;
17947;SDS011;9099;47.958;11.366;2022-09-09T03:32:50;1.75;;;0.95;;
17947;SDS011;9099;47.958;11.366;2022-09-09T03:35:17;1.30;;;0.70;;
17947;SDS011;9099;47.958;11.366;2022-09-09T03:37:46;0.70;;;0.70;;
17947;SDS011;9099;47.958;11.366;2022-09-09T03:40:13;1.67;;;0.80;;
17947;SDS011;9099;47.958;11.366;2022-09-09T03:42:40;1.83;;;0.80;;
17947;SDS011;9099;47.958;11.366;2022-09-09T03:45:08;1.05;;;0.93;;
17947;SDS011;9099;47.958;11.366;2022-09-09T03:47:35;0.63;;;0.63;;
17947;SDS011;9099;47.958;11.366;2022-09-09T03:50:03;2.30;;;0.60;;
17947;SDS011;9099;47.958;11.366;2022-09-09T03:52:34;1.25;;;0.70;;
17947;SDS011;9099;47.958;11.366;2022-09-09T03:55:02;1.33;;;0.70;;
17947;SDS011;9099;47.958;11.366;2022-09-09T03:57:30;1.17;;;0.80;;
17947;SDS011;9099;47.958;11.366;2022-09-09T03:59:59;0.88;;;0.80;;
17947;SDS011;9099;47.958;11.366;2022-09-09T04:02:26;0.95;;;0.73;;
17947;SDS011;9099;47.958;11.366;2022-09-09T04:04:53;0.70;;;0.70;;
17947;SDS011;9099;47.958;11.366;2022-09-09T04:07:20;0.85;;;0.60;;
17947;SDS011;9099;47.958;11.366;2022-09-09T04:09:47;1.80;;;0.73;;
17947;SDS011;9099;47.958;11.366;2022-09-09T04:12:15;1.08;;;0.75;;
17947;SDS011;9099;47.958;11.366;2022-09-09T04:14:42;0.65;;;0.65;;
17947;SDS011;9099;47.958;11.366;2022-09-09T04:17:09;1.15;;;1.00;;
17947;SDS011;9099;47.958;11.366;2022-09-09T04:19:36;0.77;;;0.77;;
17947;SDS011;9099;47.958;11.366;2022-09-09T04:22:03;1.02;;;0.70;;
17947;SDS011;9099;47.958;11.366;2022-09-09T04:24:30;0.93;;;0.80;;
17947;SDS011;9099;47.958;11.366;2022-09-09T04:26:57;0.80;;;0.77;;
17947;SDS011;9099;47.958;11.366;2022-09-09T04:29:25;0.77;;;0.77;;
17947;SDS011;9099;47.958;11.366;2022-09-09T04:31:52;2.90;;;0.90;;
17947;SDS011;9099;47.958;11.366;2022-09-09T04:34:18;1.15;;;0.80;;
17947;SDS011;9099;47.958;11.366;2022-09-09T04:36:46;0.70;;;0.70;;
17947;SDS011;9099;47.958;11.366;2022-09-09T04:39:17;0.70;;;0.70;;
17947;SDS011;9099;47.958;11.366;2022-09-09T04:41:44;1.17;;;0.70;;
17947;SDS011;9099;47.958;11.366;2022-09-09T04:44:12;2.85;;;0.90;;
17947;SDS011;9099;47.958;11.366;2022-09-09T04:46:40;2.60;;;0.90;;
17947;SDS011;9099;47.958;11.366;2022-09-09T04:49:07;2.92;;;1.10;;
17947;SDS011;9099;47.958;11.366;2022-09-09T04:51:34;0.98;;;0.90;;
17947;SDS011;9099;47.958;11.366;2022-09-09T04:54:00;1.48;;;1.10;;
17947;SDS011;9099;47.958;11.366;2022-09-09T04:56:27;1.48;;;1.20;;
17947;SDS011;9099;47.958;11.366;2022-09-09T04:58:54;0.90;;;0.90;;
17947;SDS011;9099;47.958;11.366;2022-09-09T05:01:21;1.00;;;0.82;;
17947;SDS011;9099;47.958;11.366;2022-09-09T05:03:50;1.10;;;1.00;;
17947;SDS011;9099;47.958;11.366;2022-09-09T05:06:19;1.10;;;1.05;;
17947;SDS011;9099;47.958;11.366;2022-09-09T05:08:47;1.20;;;1.10;;
17947;SDS011;9099;47.958;11.366;2022-09-09T05:11:18;1.55;;;1.00;;
17947;SDS011;9099;47.958;11.366;2022-09-09T05:13:46;1.30;;;1.20;;
17947;SDS011;9099;47.958;11.366;2022-09-09T05:16:13;0.95;;;0.80;;
17947;SDS011;9099;47.958;11.366;2022-09-09T05:18:40;1.17;;;0.95;;
17947;SDS011;9099;47.958;11.366;2022-09-09T05:21:10;2.00;;;0.85;;
17947;SDS011;9099;47.958;11.366;2022-09-09T05:23:37;1.67;;;0.90;;
17947;SDS011;9099;47.958;11.366;2022-09-09T05:26:05;1.00;;;1.00;;
17947;SDS011;9099;47.958;11.366;2022-09-09T05:28:33;1.13;;;1.00;;
17947;SDS011;9099;47.958;11.366;2022-09-09T05:31:02;1.80;;;0.90;;
17947;SDS011;9099;47.958;11.366;2022-09-09T05:33:30;0.98;;;0.90;;
17947;SDS011;9099;47.958;11.366;2022-09-09T05:35:58;1.30;;;0.90;;
17947;SDS011;9099;47.958;11.366;2022-09-09T05:38:29;0.95;;;0.90;;
17947;SDS011;9099;47.958;11.366;2022-09-09T05:40:56;1.63;;;0.95;;
17947;SDS011;9099;47.958;11.366;2022-09-09T05:43:23;1.05;;;0.80;;
17947;SDS011;9099;47.958;11.366;2022-09-09T05:45:58;1.23;;;1.00;;
17947;SDS011;9099;47.958;11.366;2022-09-09T05:48:27;0.88;;;0.88;;
17947;SDS011;9099;47.958;11.366;2022-09-09T05:50:55;1.00;;;1.00;;
17947;SDS011;9099;47.958;11.366;2022-09-09T05:53:22;0.73;;;0.73;;
17947;SDS011;9099;47.958;11.366;2022-09-09T05:55:57;1.88;;;1.00;;
17947;SDS011;9099;47.958;11.366;2022-09-09T05:58:24;1.00;;;1.00;;
17947;SDS011;9099;47.958;11.366;2022-09-09T06:00:51;1.00;;;0.90;;
17947;SDS011;9099;47.958;11.366;2022-09-09T06:03:20;1.33;;;0.80;;
17947;SDS011;9099;47.958;11.366;2022-09-09T06:05:56;1.52;;;0.75;;
17947;SDS011;9099;47.958;11.366;2022-09-09T06:08:23;1.42;;;0.80;;
17947;SDS011;9099;47.958;11.366;2022-09-09T06:10:51;1.23;;;1.10;;
17947;SDS011;9099;47.958;11.366;2022-09-09T06:13:18;0.70;;;0.60;;
17947;SDS011;9099;47.958;11.366;2022-09-09T06:15:49;1.35;;;0.90;;
17947;SDS011;9099;47.958;11.366;2022-09-09T06:18:17;1.33;;;1.00;;
17947;SDS011;9099;47.958;11.366;2022-09-09T06:20:52;1.10;;;1.10;;
17947;SDS011;9099;47.958;11.366;2022-09-09T06:23:20;1.63;;;0.77;;
17947;SDS011;9099;47.958;11.366;2022-09-09T06:25:47;1.30;;;0.70;;
17947;SDS011;9099;47.958;11.366;2022-09-09T06:28:17;1.48;;;0.80;;
17947;SDS011;9099;47.958;11.366;2022-09-09T06:30:44;2.58;;;0.90;;
17947;SDS011;9099;47.958;11.366;2022-09-09T06:33:12;1.55;;;0.93;;
17947;SDS011;9099;47.958;11.366;2022-09-09T06:35:39;0.80;;;0.80;;
17947;SDS011;9099;47.958;11.366;2022-09-09T06:38:05;1.48;;;0.80;;
17947;SDS011;9099;47.958;11.366;2022-09-09T06:40:33;0.68;;;0.68;;
17947;SDS011;9099;47.958;11.366;2022-09-09T06:43:00;1.00;;;0.73;;
17947;SDS011;9099;47.958;11.366;2022-09-09T06:45:28;0.60;;;0.60;;
17947;SDS011;9099;47.958;11.366;2022-09-09T06:47:56;0.80;;;0.80;;
17947;SDS011;9099;47.958;11.366;2022-09-09T06:50:22;1.80;;;0.90;;
17947;SDS011;9099;47.958;11.366;2022-09-09T06:52:49;1.02;;;0.80;;
17947;SDS011;9099;47.958;11.366;2022-09-09T06:55:16;1.35;;;1.00;;
17947;SDS011;9099;47.958;11.366;2022-09-09T06:57:43;0.88;;;0.88;;
17947;SDS011;9099;47.958;11.366;2022-09-09T07:00:11;1.77;;;1.00;;
17947;SDS011;9099;47.958;11.366;2022-09-09T07:02:40;2.25;;;0.88;;
17947;SDS011;9099;47.958;11.366;2022-09-09T07:05:07;1.25;;;0.70;;
17947;SDS011;9099;47.958;11.366;2022-09-09T07:07:34;0.60;;;0.60;;
17947;SDS011;9099;47.958;11.366;2022-09-09T07:10:01;1.27;;;0.55;;
17947;SDS011;9099;47.958;11.366;2022-09-09T07:12:29;0.60;;;0.60;;
17947;SDS011;9099;47.958;11.366;2022-09-09T07:14:56;0.52;;;0.43;;
17947;SDS011;9099;47.958;11.366;2022-09-09T07:17:23;0.70;;;0.70;;
17947;SDS011;9099;47.958;11.366;2022-09-09T07:19:51;1.00;;;0.68;;
17947;SDS011;9099;47.958;11.366;2022-09-09T07:22:18;0.68;;;0.68;;
17947;SDS011;9099;47.958;11.366;2022-09-09T07:24:45;0.95;;;0.57;;
17947;SDS011;9099;47.958;11.366;2022-09-09T07:27:12;1.77;;;0.75;;
17947;SDS011;9099;47.958;11.366;2022-09-09T07:29:38;0.52;;;0.52;;
17947;SDS011;9099;47.958;11.366;2022-09-09T07:32:05;1.27;;;0.60;;
17947;SDS011;9099;47.958;11.366;2022-09-09T07:34:33;0.60;;;0.60;;
17947;SDS011;9099;47.958;11.366;2022-09-09T07:37:01;0.55;;;0.55;;
17947;SDS011;9099;47.958;11.366;2022-09-09T07:39:28;2.08;;;0.57;;
17947;SDS011;9099;47.958;11.366;2022-09-09T07:41:55;1.63;;;0.68;;
17947;SDS011;9099;47.958;11.366;2022-09-09T07:44:24;0.77;;;0.77;;
17947;SDS011;9099;47.958;11.366;2022-09-09T07:46:51;1.55;;;0.80;;
17947;SDS011;9099;47.958;11.366;2022-09-09T07:49:18;0.90;;;0.90;;
17947;SDS011;9099;47.958;11.366;2022-09-09T07:51:46;0.75;;;0.68;;
17947;SDS011;9099;47.958;11.366;2022-09-09T07:54:16;0.90;;;0.68;;
17947;SDS011;9099;47.958;11.366;2022-09-09T07:56:45;0.80;;;0.77;;
17947;SDS011;9099;47.958;11.366;2022-09-09T07:59:14;0.82;;;0.70;;
17947;SDS011;9099;47.958;11.366;2022-09-09T08:01:42;0.60;;;0.60;;
17947;SDS011;9099;47.958;11.366;2022-09-09T08:04:11;0.93;;;0.65;;
17947;SDS011;9099;47.958;11.366;2022-09-09T08:06:42;2.05;;;0.60;;
17947;SDS011;9099;47.958;11.366;2022-09-09T08:09:11;0.60;;;0.60;;
17947;SDS011;9099;47.958;11.366;2022-09-09T08:11:40;2.15;;;0.93;;
17947;SDS011;9099;47.958;11.366;2022-09-09T08:14:08;1.00;;;0.95;;
17947;SDS011;9099;47.958;11.366;2022-09-09T08:16:37;0.60;;;0.60;;
17947;SDS011;9099;47.958;11.366;2022-09-09T08:19:05;1.70;;;0.80;;
17947;SDS011;9099;47.958;11.366;2022-09-09T08:21:33;0.60;;;0.60;;
17947;SDS011;9099;47.958;11.366;2022-09-09T08:24:02;1.10;;;0.63;;
17947;SDS011;9099;47.958;11.366;2022-09-09T08:26:31;1.05;;;0.90;;
17947;SDS011;9099;47.958;11.366;2022-09-09T08:29:01;1.88;;;0.60;;
17947;SDS011;9099;47.958;11.366;2022-09-09T08:31:29;0.80;;;0.80;;
17947;SDS011;9099;47.958;11.366;2022-09-09T08:33:58;1.02;;;0.70;;
17947;SDS011;9099;47.958;11.366;2022-09-09T08:36:26;0.80;;;0.80;;
17947;SDS011;9099;47.958;11.366;2022-09-09T08:38:55;0.60;;;0.60;;
17947;SDS011;9099;47.958;11.366;2022-09-09T08:41:29;0.68;;;0.68;;
17947;SDS011;9099;47.958;11.366;2022-09-09T08:44:12;1.98;;;0.90;;
17947;SDS011;9099;47.958;11.366;2022-09-09T08:46:47;0.50;;;0.50;;
17947;SDS011;9099;47.958;11.366;2022-09-09T08:49:26;0.93;;;0.80;;
17947;SDS011;9099;47.958;11.366;2022-09-09T08:52:15;2.40;;;1.30;;
17947;SDS011;9099;47.958;11.366;2022-09-09T08:54:45;1.77;;;0.90;;
17947;SDS011;9099;47.958;11.366;2022-09-09T08:57:14;2.28;;;1.00;;
17947;SDS011;9099;47.958;11.366;2022-09-09T08:59:53;0.90;;;0.80;;
17947;SDS011;9099;47.958;11.366;2022-09-09T09:02:23;1.00;;;0.90;;
17947;SDS011;9099;47.958;11.366;2022-09-09T09:04:59;1.33;;;1.00;;
17947;SDS011;9099;47.958;11.366;2022-09-09T09:07:39;2.25;;;1.10;;
17947;SDS011;9099;47.958;11.366;2022-09-09T09:10:13;1.75;;;0.90;;
17947;SDS011;9099;47.958;11.366;2022-09-09T09:12:47;1.02;;;0.60;;
17947;SDS011;9099;47.958;11.366;2022-09-09T09:15:16;0.93;;;0.60;;
17947;SDS011;9099;47.958;11.366;2022-09-09T09:17:47;2.78;;;0.80;;
17947;SDS011;9099;47.958;11.366;2022-09-09T09:20:15;1.40;;;0.80;;
17947;SDS011;9099;47.958;11.366;2022-09-09T09:22:46;3.47;;;0.90;;
17947;SDS011;9099;47.958;11.366;2022-09-09T09:25:16;1.60;;;0.90;;
17947;SDS011;9099;47.958;11.366;2022-09-09T09:27:46;1.02;;;0.80;;
17947;SDS011;9099;47.958;11.366;2022-09-09T09:30:22;0.80;;;0.77;;
17947;SDS011;9099;47.958;11.366;2022-09-09T09:32:52;4.70;;;1.02;;
17947;SDS011;9099;47.958;11.366;2022-09-09T09:35:21;2.00;;;0.90;;
17947;SDS011;9099;47.958;11.366;2022-09-09T09:37:48;1.65;;;0.65;;
17947;SDS011;9099;47.958;11.366;2022-09-09T09:40:16;1.00;;;0.65;;
17947;SDS011;9099;47.958;11.366;2022-09-09T09:42:48;0.90;;;0.52;;
17947;SDS011;9099;47.958;11.366;2022-09-09T09:45:20;1.27;;;0.70;;
17947;SDS011;9099;47.958;11.366;2022-09-09T09:48:00;0.60;;;0.60;;
17947;SDS011;9099;47.958;11.366;2022-09-09T09:50:29;2.28;;;0.55;;
17947;SDS011;9099;47.958;11.366;2022-09-09T09:52:58;1.58;;;0.70;;
17947;SDS011;9099;47.958;11.366;2022-09-09T09:55:26;0.60;;;0.60;;
17947;SDS011;9099;47.958;11.366;2022-09-09T09:58:00;0.60;;;0.60;;
17947;SDS011;9099;47.958;11.366;2022-09-09T10:00:29;0.70;;;0.70;;
17947;SDS011;9099;47.958;11.366;2022-09-09T10:02:56;0.90;;;0.65;;
17947;SDS011;9099;47.958;11.366;2022-09-09T10:05:27;0.70;;;0.68;;
17947;SDS011;9099;47.958;11.366;2022-09-09T10:08:04;1.15;;;0.90;;
17947;SDS011;9099;47.958;11.366;2022-09-09T10:10:40;1.50;;;0.80;;
17947;SDS011;9099;47.958;11.366;2022-09-09T10:13:17;1.75;;;0.68;;
17947;SDS011;9099;47.958;11.366;2022-09-09T10:15:55;1.40;;;0.80;;
17947;SDS011;9099;47.958;11.366;2022-09-09T10:18:40;1.30;;;0.60;;
17947;SDS011;9099;47.958;11.366;2022-09-09T10:21:17;0.80;;;0.60;;
17947;SDS011;9099;47.958;11.366;2022-09-09T10:24:05;1.27;;;0.80;;
17947;SDS011;9099;47.958;11.366;2022-09-09T10:26:48;1.00;;;0.90;;
17947;SDS011;9099;47.958;11.366;2022-09-09T10:29:24;1.27;;;0.88;;
17947;SDS011;9099;47.958;11.366;2022-09-09T10:32:03;1.02;;;0.80;;
17947;SDS011;9099;47.958;11.366;2022-09-09T10:37:31;0.90;;;0.65;;
17947;SDS011;9099;47.958;11.366;2022-09-09T10:40:17;1.10;;;0.90;;
17947;SDS011;9099;47.958;11.366;2022-09-09T10:42:56;1.15;;;0.90;;
17947;SDS011;9099;47.958;11.366;2022-09-09T10:45:32;1.77;;;0.90;;
17947;SDS011;9099;47.958;11.366;2022-09-09T10:48:15;1.08;;;0.90;;
17947;SDS011;9099;47.958;11.366;2022-09-09T10:50:56;1.05;;;0.70;;
17947;SDS011;9099;47.958;11.366;2022-09-09T10:53:39;1.02;;;0.90;;
17947;SDS011;9099;47.958;11.366;2022-09-09T10:56:13;2.20;;;0.80;;
17947;SDS011;9099;47.958;11.366;2022-09-09T10:58:44;1.10;;;0.60;;
17947;SDS011;9099;47.958;11.366;2022-09-09T11:01:16;0.80;;;0.70;;
17947;SDS011;9099;47.958;11.366;2022-09-09T11:03:49;0.60;;;0.60;;
17947;SDS011;9099;47.958;11.366;2022-09-09T11:06:21;1.92;;;0.80;;
17947;SDS011;9099;47.958;11.366;2022-09-09T11:08:53;0.60;;;0.52;;
17947;SDS011;9099;47.958;11.366;2022-09-09T11:11:21;0.55;;;0.40;;
17947;SDS011;9099;47.958;11.366;2022-09-09T11:13:55;0.88;;;0.50;;
17947;SDS011;9099;47.958;11.366;2022-09-09T11:16:28;0.70;;;0.40;;
17947;SDS011;9099;47.958;11.366;2022-09-09T11:18:59;1.00;;;0.50;;
17947;SDS011;9099;47.958;11.366;2022-09-09T11:21:31;0.52;;;0.50;;
17947;SDS011;9099;47.958;11.366;2022-09-09T11:24:02;0.73;;;0.47;;
17947;SDS011;9099;47.958;11.366;2022-09-09T11:26:36;1.02;;;0.45;;
17947;SDS011;9099;47.958;11.366;2022-09-09T11:29:13;0.35;;;0.35;;
17947;SDS011;9099;47.958;11.366;2022-09-09T11:32:02;0.43;;;0.43;;
17947;SDS011;9099;47.958;11.366;2022-09-09T11:34:44;0.30;;;0.30;;
17947;SDS011;9099;47.958;11.366;2022-09-09T11:37:23;0.47;;;0.47;;
17947;SDS011;9099;47.958;11.366;2022-09-09T11:40:09;1.35;;;0.40;;
17947;SDS011;9099;47.958;11.366;2022-09-09T11:42:42;0.43;;;0.40;;
17947;SDS011;9099;47.958;11.366;2022-09-09T11:45:10;0.40;;;0.40;;
17947;SDS011;9099;47.958;11.366;2022-09-09T11:47:52;0.40;;;0.40;;
17947;SDS011;9099;47.958;11.366;2022-09-09T11:50:29;0.98;;;0.60;;
17947;SDS011;9099;47.958;11.366;2022-09-09T11:53:05;0.43;;;0.32;;
17947;SDS011;9099;47.958;11.366;2022-09-09T11:55:47;1.67;;;0.50;;
17947;SDS011;9099;47.958;11.366;2022-09-09T11:58:25;0.40;;;0.40;;
17947;SDS011;9099;47.958;11.366;2022-09-09T12:00:54;0.47;;;0.40;;
17947;SDS011;9099;47.958;11.366;2022-09-09T12:03:38;1.92;;;0.40;;
17947;SDS011;9099;47.958;11.366;2022-09-09T12:06:10;0.90;;;0.25;;
17947;SDS011;9099;47.958;11.366;2022-09-09T12:08:41;0.80;;;0.55;;
17947;SDS011;9099;47.958;11.366;2022-09-09T12:11:09;0.40;;;0.40;;
17947;SDS011;9099;47.958;11.366;2022-09-09T12:13:37;0.68;;;0.50;;
17947;SDS011;9099;47.958;11.366;2022-09-09T12:16:04;0.77;;;0.38;;
17947;SDS011;9099;47.958;11.366;2022-09-09T12:18:32;0.50;;;0.47;;
17947;SDS011;9099;47.958;11.366;2022-09-09T12:21:03;0.95;;;0.47;;
17947;SDS011;9099;47.958;11.366;2022-09-09T12:23:37;0.43;;;0.30;;
17947;SDS011;9099;47.958;11.366;2022-09-09T12:26:20;0.28;;;0.28;;
17947;SDS011;9099;47.958;11.366;2022-09-09T12:29:06;0.90;;;0.40;;
17947;SDS011;9099;47.958;11.366;2022-09-09T12:31:41;0.35;;;0.35;;
17947;SDS011;9099;47.958;11.366;2022-09-09T12:34:14;0.47;;;0.40;;
17947;SDS011;9099;47.958;11.366;2022-09-09T12:36:44;0.40;;;0.40;;
17947;SDS011;9099;47.958;11.366;2022-09-09T12:39:27;0.20;;;0.20;;
17947;SDS011;9099;47.958;11.366;2022-09-09T12:41:59;0.43;;;0.43;;
17947;SDS011;9099;47.958;11.366;2022-09-09T12:44:29;0.52;;;0.30;;
17947;SDS011;9099;47.958;11.366;2022-09-09T12:46:58;0.68;;;0.30;;
17947;SDS011;9099;47.958;11.366;2022-09-09T12:49:29;0.82;;;0.43;;
17947;SDS011;9099;47.958;11.366;2022-09-09T12:52:01;0.45;;;0.35;;
17947;SDS011;9099;47.958;11.366;2022-09-09T12:54:32;1.08;;;0.40;;
17947;SDS011;9099;47.958;11.366;2022-09-09T12:57:00;0.40;;;0.40;;
17947;SDS011;9099;47.958;11.366;2022-09-09T12:59:34;1.05;;;0.50;;
17947;SDS011;9099;47.958;11.366;2022-09-09T13:02:10;0.50;;;0.50;;
17947;SDS011;9099;47.958;11.366;2022-09-09T13:04:44;0.90;;;0.60;;
17947;SDS011;9099;47.958;11.366;2022-09-09T13:07:11;0.38;;;0.38;;
17947;SDS011;9099;47.958;11.366;2022-09-09T13:09:42;1.67;;;0.65;;
17947;SDS011;9099;47.958;11.366;2022-09-09T13:12:11;1.30;;;0.55;;
17947;SDS011;9099;47.958;11.366;2022-09-09T13:14:42;0.43;;;0.43;;
17947;SDS011;9099;47.958;11.366;2022-09-09T13:17:15;0.45;;;0.38;;
17947;SDS011;9099;47.958;11.366;2022-09-09T13:19:45;0.85;;;0.50;;
17947;SDS011;9099;47.958;11.366;2022-09-09T13:22:13;0.50;;;0.40;;
17947;SDS011;9099;47.958;11.366;2022-09-09T13:24:42;1.88;;;0.80;;
17947;SDS011;9099;47.958;11.366;2022-09-09T13:27:22;0.90;;;0.55;;
17947;SDS011;9099;47.958;11.366;2022-09-09T13:29:54;0.63;;;0.40;;
17947;SDS011;9099;47.958;11.366;2022-09-09T13:32:22;0.80;;;0.40;;
17947;SDS011;9099;47.958;11.366;2022-09-09T13:34:52;0.77;;;0.40;;
17947;SDS011;9099;47.958;11.366;2022-09-09T13:37:21;2.22;;;0.73;;
17947;SDS011;9099;47.958;11.366;2022-09-09T13:39:52;1.00;;;0.43;;
17947;SDS011;9099;47.958;11.366;2022-09-09T13:42:22;1.33;;;0.70;;
17947;SDS011;9099;47.958;11.366;2022-09-09T13:44:52;0.57;;;0.57;;
17947;SDS011;9099;47.958;11.366;2022-09-09T13:47:21;1.25;;;0.30;;
17947;SDS011;9099;47.958;11.366;2022-09-09T13:49:54;1.08;;;0.40;;
17947;SDS011;9099;47.958;11.366;2022-09-09T13:52:20;0.77;;;0.50;;
17947;SDS011;9099;47.958;11.366;2022-09-09T13:54:48;0.57;;;0.50;;
17947;SDS011;9099;47.958;11.366;2022-09-09T13:57:18;1.20;;;0.52;;
17947;SDS011;9099;47.958;11.366;2022-09-09T13:59:47;0.43;;;0.30;;
17947;SDS011;9099;47.958;11.366;2022-09-09T14:02:14;0.77;;;0.57;;
17947;SDS011;9099;47.958;11.366;2022-09-09T14:04:42;1.70;;;0.60;;
17947;SDS011;9099;47.958;11.366;2022-09-09T14:07:09;1.13;;;0.50;;
17947;SDS011;9099;47.958;11.366;2022-09-09T14:09:38;0.57;;;0.50;;
17947;SDS011;9099;47.958;11.366;2022-09-09T14:12:08;0.63;;;0.45;;
17947;SDS011;9099;47.958;11.366;2022-09-09T14:14:37;0.47;;;0.40;;
17947;SDS011;9099;47.958;11.366;2022-09-09T14:17:04;1.55;;;0.68;;
17947;SDS011;9099;47.958;11.366;2022-09-09T14:19:31;0.60;;;0.40;;
17947;SDS011;9099;47.958;11.366;2022-09-09T14:21:59;1.05;;;0.60;;
17947;SDS011;9099;47.958;11.366;2022-09-09T14:24:26;1.17;;;0.65;;
17947;SDS011;9099;47.958;11.366;2022-09-09T14:26:53;1.50;;;0.57;;
17947;SDS011;9099;47.958;11.366;2022-09-09T14:29:20;0.70;;;0.40;;
17947;SDS011;9099;47.958;11.366;2022-09-09T14:31:49;1.23;;;0.70;;
17947;SDS011;9099;47.958;11.366;2022-09-09T14:34:15;1.13;;;0.60;;
17947;SDS011;9099;47.958;11.366;2022-09-09T14:36:43;0.85;;;0.50;;
17947;SDS011;9099;47.958;11.366;2022-09-09T14:39:10;0.52;;;0.50;;
17947;SDS011;9099;47.958;11.366;2022-09-09T14:41:37;0.63;;;0.50;;
17947;SDS011;9099;47.958;11.366;2022-09-09T14:44:04;0.57;;;0.30;;
17947;SDS011;9099;47.958;11.366;2022-09-09T14:46:31;0.70;;;0.47;;
17947;SDS011;9099;47.958;11.366;2022-09-09T14:48:59;2.05;;;0.60;;
17947;SDS011;9099;47.958;11.366;2022-09-09T14:51:26;0.80;;;0.50;;
17947;SDS011;9099;47.958;11.366;2022-09-09T14:53:53;1.15;;;0.50;;
17947;SDS011;9099;47.958;11.366;2022-09-09T14:56:23;2.03;;;0.52;;
17947;SDS011;9099;47.958;11.366;2022-09-09T14:58:52;0.80;;;0.40;;
17947;SDS011;9099;47.958;11.366;2022-09-09T15:01:20;1.17;;;0.63;;
17947;SDS011;9099;47.958;11.366;2022-09-09T15:03:51;1.10;;;0.60;;
17947;SDS011;9099;47.958;11.366;2022-09-09T15:06:21;0.65;;;0.40;;
17947;SDS011;9099;47.958;11.366;2022-09-09T15:08:49;1.02;;;0.47;;
17947;SDS011;9099;47.958;11.366;2022-09-09T15:11:17;0.77;;;0.30;;
17947;SDS011;9099;47.958;11.366;2022-09-09T15:13:45;0.95;;;0.50;;